Time;durP1;ratioP1;P1;durP2;ratioP2;P2;SDS_P1;SDS_P2;PMS_P1;PMS_P2;Temp;Humidity;BMP_temperature;BMP_pressure;BME280_temperature;BME280_humidity;BME280_pressure;Samples;Min_cycle;Max_cycle;Signal;HPM_P1;HPM_P2
2021/04/18 00:02:17;;;;;;;11.00;5.97;;;;;;;1.45;85.53;96541.66;5078174;28;20118;-77
2021/04/18 00:04:43;;;;;;;10.23;5.37;;;;;;;1.60;84.94;96539.84;5055265;28;20374;-76
2021/04/18 00:07:09;;;;;;;8.43;5.33;;;;;;;1.68;84.22;96529.00;5074616;28;20099;-77
2021/04/18 00:09:34;;;;;;;7.87;4.87;;;;;;;1.71;83.89;96524.47;5075701;28;20563;-77
2021/04/18 00:12:00;;;;;;;13.17;7.00;;;;;;;1.72;84.17;96520.13;5060217;28;20131;-77
2021/04/18 00:14:26;;;;;;;9.23;5.80;;;;;;;1.72;84.26;96526.13;5073599;28;20038;-76
2021/04/18 00:16:53;;;;;;;9.63;6.03;;;;;;;1.76;83.56;96517.22;5069698;28;20051;-76
2021/04/18 00:19:19;;;;;;;11.10;5.70;;;;;;;1.79;83.96;96511.00;5070709;28;20451;-77
2021/04/18 00:21:44;;;;;;;9.13;5.70;;;;;;;1.77;83.61;96513.69;5072617;28;20470;-76
2021/04/18 00:24:10;;;;;;;7.80;5.47;;;;;;;1.81;83.37;96519.50;5074723;28;20514;-76
2021/04/18 00:26:36;;;;;;;9.80;5.70;;;;;;;1.84;83.32;96509.75;5057539;28;20024;-77
2021/04/18 00:29:02;;;;;;;8.33;5.27;;;;;;;1.75;83.67;96517.34;5076528;28;20027;-77
2021/04/18 00:31:28;;;;;;;8.60;5.53;;;;;;;1.68;84.18;96509.09;5064116;28;20027;-77
2021/04/18 00:33:54;;;;;;;10.33;5.43;;;;;;;1.70;84.36;96509.81;5070159;28;20486;-77
2021/04/18 00:36:19;;;;;;;9.37;6.10;;;;;;;1.65;84.69;96509.31;5080531;28;20028;-76
2021/04/18 00:38:45;;;;;;;10.10;6.00;;;;;;;1.56;84.34;96505.53;5064162;28;20048;-76
2021/04/18 00:41:11;;;;;;;9.50;5.70;;;;;;;1.52;85.46;96511.84;5069136;28;20473;-76
2021/04/18 00:43:41;;;;;;;11.27;7.07;;;;;;;1.39;86.10;96509.19;5076727;28;20048;-76
2021/04/18 00:46:07;;;;;;;10.00;6.20;;;;;;;1.33;86.35;96513.91;5074993;28;20529;-77
2021/04/18 00:48:38;;;;;;;9.00;6.43;;;;;;;1.44;86.18;96514.06;5078994;28;20450;-77
2021/04/18 00:51:04;;;;;;;11.17;6.63;;;;;;;1.52;85.03;96504.06;5066264;28;20443;-77
2021/04/18 00:53:30;;;;;;;10.27;6.40;;;;;;;1.41;85.58;96515.09;5061446;28;20536;-75
2021/04/18 00:55:56;;;;;;;9.97;6.13;;;;;;;1.39;85.81;96514.34;5064922;28;20471;-75
2021/04/18 00:58:22;;;;;;;10.83;6.83;;;;;;;1.33;85.63;96509.56;5075277;28;20456;-76
2021/04/18 01:00:47;;;;;;;11.33;7.60;;;;;;;1.29;86.64;96505.50;5067749;28;20035;-77
2021/04/18 01:03:13;;;;;;;11.40;7.03;;;;;;;1.28;86.47;96505.59;5061193;28;20413;-76
2021/04/18 01:05:40;;;;;;;11.17;6.73;;;;;;;1.39;86.43;96503.16;5055384;28;20028;-77
2021/04/18 01:08:09;;;;;;;12.00;7.57;;;;;;;1.44;85.97;96497.69;5053950;28;20474;-77
2021/04/18 01:10:36;;;;;;;11.90;7.43;;;;;;;1.55;85.62;96492.66;5070199;28;20443;-77
2021/04/18 01:13:02;;;;;;;11.37;6.77;;;;;;;1.49;85.63;96495.66;5058371;28;20474;-76
2021/04/18 01:15:28;;;;;;;11.70;6.57;;;;;;;1.50;85.36;96490.34;5074573;28;20546;-76
2021/04/18 01:17:54;;;;;;;11.53;7.23;;;;;;;1.47;86.43;96494.91;5078418;28;20418;-77
2021/04/18 01:20:23;;;;;;;11.83;7.40;;;;;;;1.48;85.55;96500.00;5059947;28;20040;-77
2021/04/18 01:22:59;;;;;;;10.77;7.47;;;;;;;1.52;86.79;96498.06;5061342;28;20446;-76
2021/04/18 01:25:48;;;;;;;11.83;7.90;;;;;;;1.59;85.39;96494.97;5057877;28;20458;-76
2021/04/18 01:28:16;;;;;;;16.10;8.40;;;;;;;1.56;86.48;96495.16;5062317;28;20471;-76
2021/04/18 01:30:42;;;;;;;12.77;7.77;;;;;;;1.54;87.09;96489.25;5070837;28;20830;-76
2021/04/18 01:33:08;;;;;;;11.33;8.20;;;;;;;1.62;87.15;96484.41;5066549;28;20024;-76
2021/04/18 01:35:35;;;;;;;11.73;7.80;;;;;;;1.56;86.91;96489.97;5051019;28;20470;-77
2021/04/18 01:38:01;;;;;;;12.97;8.33;;;;;;;1.42;87.48;96482.25;5075316;28;20059;-76
2021/04/18 01:40:27;;;;;;;10.87;8.30;;;;;;;1.53;87.24;96487.56;5050090;28;20444;-77
2021/04/18 01:42:53;;;;;;;12.77;8.07;;;;;;;1.42;87.51;96483.06;5058669;28;20477;-76
2021/04/18 01:45:20;;;;;;;11.30;8.53;;;;;;;1.50;87.40;96485.16;5055155;28;20482;-77
2021/04/18 01:47:47;;;;;;;11.50;8.63;;;;;;;1.49;87.91;96485.28;5086283;28;20533;-78
2021/04/18 01:50:17;;;;;;;14.23;9.43;;;;;;;1.46;88.11;96478.53;5077291;28;20523;-76
2021/04/18 01:52:45;;;;;;;15.27;8.77;;;;;;;1.41;88.00;96481.41;5063775;28;20477;-79
2021/04/18 01:55:12;;;;;;;13.20;8.17;;;;;;;1.45;87.20;96471.69;5079950;28;20457;-77
2021/04/18 01:57:38;;;;;;;12.90;8.80;;;;;;;1.48;87.01;96474.09;5060646;28;20477;-76
2021/04/18 02:00:09;;;;;;;13.00;7.90;;;;;;;1.47;87.29;96479.34;5063416;28;20461;-77
2021/04/18 02:02:41;;;;;;;12.68;8.52;;;;;;;1.53;87.69;96469.44;5069154;28;20480;-77
2021/04/18 02:05:20;;;;;;;12.17;8.80;;;;;;;1.53;88.01;96468.59;5064066;28;20068;-77
2021/04/18 02:07:46;;;;;;;13.60;8.50;;;;;;;1.39;87.37;96472.06;5070244;28;21006;-77
2021/04/18 02:10:14;;;;;;;13.67;8.90;;;;;;;1.50;87.90;96473.97;5062979;28;20526;-77
2021/04/18 02:12:43;;;;;;;12.27;8.63;;;;;;;1.58;87.48;96469.97;5059555;28;20490;-77
2021/04/18 02:15:10;;;;;;;12.33;8.50;;;;;;;1.45;86.74;96471.69;5049916;28;20474;-77
2021/04/18 02:17:38;;;;;;;14.80;8.97;;;;;;;1.39;87.89;96477.25;5067445;28;20510;-77
2021/04/18 02:20:06;;;;;;;13.37;9.10;;;;;;;1.38;88.20;96471.25;5059947;28;20450;-77
2021/04/18 02:22:33;;;;;;;13.90;8.90;;;;;;;1.51;88.03;96466.13;5070880;28;20473;-77
2021/04/18 02:24:59;;;;;;;12.73;8.70;;;;;;;1.56;87.92;96464.06;5067859;28;20489;-77
2021/04/18 02:27:26;;;;;;;12.27;8.40;;;;;;;1.49;87.10;96467.97;5055403;28;20996;-77
2021/04/18 02:29:57;;;;;;;14.07;8.73;;;;;;;1.51;87.50;96471.31;5045687;28;20020;-76
2021/04/18 02:32:26;;;;;;;12.20;8.70;;;;;;;1.66;87.82;96472.06;5059162;28;20463;-77
2021/04/18 02:35:03;;;;;;;12.67;8.57;;;;;;;1.70;87.28;96459.75;5067643;28;20505;-77
2021/04/18 02:37:30;;;;;;;12.07;8.77;;;;;;;1.63;86.95;96467.91;5077821;28;21295;-78
2021/04/18 02:39:55;;;;;;;14.67;8.33;;;;;;;1.52;86.76;96470.38;5073434;28;20523;-75
2021/04/18 02:42:21;;;;;;;10.67;7.63;;;;;;;1.54;87.60;96471.13;5073948;28;20421;-77
2021/04/18 02:44:48;;;;;;;11.70;7.77;;;;;;;1.55;87.56;96467.56;5064369;28;20013;-77
2021/04/18 02:47:15;;;;;;;12.37;7.97;;;;;;;1.57;87.02;96464.88;5062109;28;20565;-77
2021/04/18 02:49:48;;;;;;;11.25;6.97;;;;;;;1.54;87.69;96470.25;5054680;28;20447;-77
2021/04/18 02:52:14;;;;;;;12.10;8.00;;;;;;;1.53;87.73;96461.66;5065751;28;20489;-77
2021/04/18 02:54:41;;;;;;;12.10;7.97;;;;;;;1.63;87.45;96470.50;5068245;28;20478;-77
2021/04/18 02:57:09;;;;;;;15.13;9.57;;;;;;;1.63;87.45;96461.91;5065069;28;20470;-77
2021/04/18 02:59:35;;;;;;;10.97;8.03;;;;;;;1.79;87.73;96459.16;5042448;28;20454;-77
2021/04/18 03:02:02;;;;;;;12.90;8.23;;;;;;;1.64;87.26;96463.53;5052169;28;20461;-77
2021/04/18 03:04:32;;;;;;;14.60;8.77;;;;;;;1.72;87.63;96463.06;5063155;28;20544;-76
2021/04/18 03:06:57;;;;;;;12.47;8.60;;;;;;;1.76;87.50;96470.53;5061984;28;20495;-77
2021/04/18 03:09:24;;;;;;;12.33;7.67;;;;;;;1.76;87.36;96467.13;5065164;28;20458;-77
2021/04/18 03:11:53;;;;;;;11.67;7.87;;;;;;;1.76;87.39;96467.94;5070771;28;20453;-77
2021/04/18 03:14:26;;;;;;;11.05;7.75;;;;;;;1.80;87.57;96472.00;5066675;28;20475;-77
2021/04/18 03:16:53;;;;;;;14.13;8.73;;;;;;;1.81;87.31;96463.31;5078942;28;20066;-77
2021/04/18 03:19:21;;;;;;;12.80;8.53;;;;;;;1.82;87.26;96461.53;5051344;28;20885;-76
2021/04/18 03:21:54;;;;;;;10.13;7.23;;;;;;;1.83;87.58;96458.00;5056799;28;20990;-77
2021/04/18 03:24:20;;;;;;;12.27;6.60;;;;;;;1.77;87.01;96461.00;5055830;28;20489;-77
2021/04/18 03:26:46;;;;;;;10.50;7.10;;;;;;;1.76;88.05;96469.72;5071425;28;20445;-77
2021/04/18 03:29:12;;;;;;;11.07;7.37;;;;;;;1.74;87.30;96461.19;5076585;28;20489;-77
2021/04/18 03:31:37;;;;;;;10.67;7.07;;;;;;;1.79;87.58;96466.94;5068221;28;20027;-77
2021/04/18 03:34:07;;;;;;;12.87;6.90;;;;;;;1.76;87.84;96467.13;5070561;28;20089;-77
2021/04/18 03:36:33;;;;;;;9.70;6.70;;;;;;;1.76;88.05;96460.16;5050201;28;20475;-77
2021/04/18 03:39:14;;;;;;;9.30;6.13;;;;;;;1.78;87.64;96467.88;5067857;28;20024;-77
2021/04/18 03:41:42;;;;;;;9.60;6.57;;;;;;;1.80;87.62;96471.19;5071069;28;21319;-77
2021/04/18 03:44:09;;;;;;;10.77;7.00;;;;;;;1.69;87.67;96466.69;5051331;28;20450;-77
2021/04/18 03:46:36;;;;;;;10.87;7.73;;;;;;;1.78;87.18;96467.88;5061720;28;20479;-77
2021/04/18 03:49:02;;;;;;;9.17;6.50;;;;;;;1.81;87.37;96470.25;5041091;28;20456;-77
2021/04/18 03:51:29;;;;;;;9.13;6.40;;;;;;;1.78;87.37;96458.31;5070249;28;20447;-78
2021/04/18 03:54:01;;;;;;;9.93;7.30;;;;;;;1.79;87.86;96459.97;5063486;28;20453;-77
2021/04/18 03:56:30;;;;;;;11.03;7.43;;;;;;;1.87;87.90;96462.06;5074206;28;21180;-76
2021/04/18 03:58:57;;;;;;;12.07;7.20;;;;;;;1.84;87.50;96457.06;5067256;28;20458;-77
2021/04/18 04:01:25;;;;;;;11.20;7.17;;;;;;;1.83;87.17;96465.78;5062451;28;20466;-77
2021/04/18 04:03:51;;;;;;;11.03;7.10;;;;;;;1.82;87.23;96458.97;5075033;28;20427;-77
2021/04/18 04:06:20;;;;;;;10.47;6.63;;;;;;;1.80;87.39;96466.00;5074368;28;21059;-77
2021/04/18 04:08:52;;;;;;;12.80;7.30;;;;;;;1.87;87.40;96462.06;5075766;28;20463;-77
2021/04/18 04:11:21;;;;;;;11.93;7.90;;;;;;;1.89;87.73;96466.22;5068259;28;21107;-78
2021/04/18 04:13:49;;;;;;;11.00;7.60;;;;;;;1.88;86.72;96459.38;5063420;28;20470;-77
2021/04/18 04:16:17;;;;;;;10.30;7.30;;;;;;;1.92;87.13;96462.59;5074710;28;20474;-77
2021/04/18 04:18:45;;;;;;;13.10;8.07;;;;;;;1.78;87.46;96471.28;5071753;28;20489;-76
2021/04/18 04:21:30;;;;;;;14.47;8.57;;;;;;;1.78;87.39;96467.88;5090123;28;21306;-76
2021/04/18 04:24:31;;;;;;;12.00;7.20;;;;;;;1.73;87.58;96470.75;4977001;28;20505;-76
2021/04/18 04:26:56;;;;;;;11.83;7.60;;;;;;;1.75;88.02;96470.66;5054938;28;21250;-77
2021/04/18 04:29:22;;;;;;;10.70;7.77;;;;;;;1.80;87.93;96474.59;5070606;28;20128;-76
2021/04/18 04:31:48;;;;;;;9.30;6.37;;;;;;;1.84;87.92;96472.63;5056555;28;20067;-77
2021/04/18 04:34:13;;;;;;;10.10;7.53;;;;;;;1.83;87.88;96476.16;5082789;28;20495;-77
2021/04/18 04:36:39;;;;;;;11.63;7.53;;;;;;;1.92;88.10;96472.16;5062163;28;20544;-77
2021/04/18 04:39:06;;;;;;;9.93;6.67;;;;;;;1.92;87.38;96472.97;5079045;28;20024;-77
2021/04/18 04:41:32;;;;;;;12.73;8.07;;;;;;;1.77;87.77;96471.38;5088886;28;20043;-77
2021/04/18 04:43:58;;;;;;;11.03;7.37;;;;;;;1.89;87.98;96475.78;5060389;28;20463;-77
2021/04/18 04:46:24;;;;;;;11.00;7.60;;;;;;;1.87;88.30;96475.03;5046080;28;20483;-77
2021/04/18 04:48:50;;;;;;;11.67;8.20;;;;;;;1.77;88.09;96479.97;5063682;28;20385;-76
2021/04/18 04:51:15;;;;;;;10.70;6.90;;;;;;;1.87;88.06;96482.81;5048538;28;20067;-77
2021/04/18 04:53:41;;;;;;;11.20;6.80;;;;;;;1.88;87.75;96480.13;5059089;28;20021;-77
2021/04/18 04:56:07;;;;;;;10.83;7.37;;;;;;;1.92;88.45;96474.75;5079310;28;20115;-77
2021/04/18 04:58:32;;;;;;;10.03;7.50;;;;;;;1.89;88.55;96479.19;5050176;28;20127;-77
2021/04/18 05:00:58;;;;;;;10.70;7.00;;;;;;;1.91;87.72;96476.47;5069618;28;20038;-77
2021/04/18 05:03:26;;;;;;;12.63;7.17;;;;;;;1.99;88.13;96481.19;5062227;28;20078;-77
2021/04/18 05:05:52;;;;;;;11.27;7.10;;;;;;;1.96;88.38;96471.84;5063650;28;20032;-76
2021/04/18 05:08:18;;;;;;;11.17;7.67;;;;;;;1.95;88.37;96466.78;5066392;28;20466;-77
2021/04/18 05:10:44;;;;;;;12.77;7.60;;;;;;;2.02;88.05;96475.81;5075413;28;20438;-76
2021/04/18 05:13:10;;;;;;;11.10;7.77;;;;;;;1.99;88.87;96471.66;5063567;28;20039;-77
2021/04/18 05:15:35;;;;;;;12.63;7.77;;;;;;;1.99;88.60;96471.66;5060941;28;20039;-77
2021/04/18 05:18:03;;;;;;;12.20;8.30;;;;;;;1.92;88.43;96475.56;5061292;28;20082;-76
2021/04/18 05:20:28;;;;;;;15.77;9.23;;;;;;;2.02;88.36;96475.81;5061949;28;20050;-77
2021/04/18 05:22:55;;;;;;;25.90;19.17;;;;;;;1.98;87.06;96475.19;5076687;28;20447;-77
2021/04/18 05:25:21;;;;;;;21.27;15.20;;;;;;;2.12;88.13;96477.69;5070242;28;20036;-77
2021/04/18 05:27:47;;;;;;;19.10;13.77;;;;;;;2.10;88.09;96479.53;5060318;28;21000;-77
2021/04/18 05:30:13;;;;;;;21.77;15.70;;;;;;;2.08;88.29;96481.44;5062560;28;20036;-77
2021/04/18 05:32:39;;;;;;;21.73;13.73;;;;;;;2.10;87.32;96481.31;5051656;28;20079;-76
2021/04/18 05:35:06;;;;;;;26.63;16.33;;;;;;;2.15;88.08;96486.19;5064287;28;20471;-77
2021/04/18 05:37:32;;;;;;;39.40;24.33;;;;;;;2.13;87.84;96489.72;5062984;28;20470;-77
2021/04/18 05:39:58;;;;;;;37.43;24.50;;;;;;;2.18;87.78;96489.44;5063577;28;21010;-77
2021/04/18 05:42:23;;;;;;;25.73;17.43;;;;;;;2.19;87.13;96487.66;5048396;28;20488;-77
2021/04/18 05:44:49;;;;;;;24.33;15.93;;;;;;;2.17;87.81;96494.72;5068656;28;20032;-77
2021/04/18 05:47:15;;;;;;;20.00;13.27;;;;;;;2.15;87.89;96493.97;5052633;28;20077;-76
2021/04/18 05:49:41;;;;;;;14.67;10.03;;;;;;;2.28;87.17;96500.00;5060370;28;20406;-77
2021/04/18 05:52:07;;;;;;;12.13;8.43;;;;;;;2.33;87.85;96501.38;5079468;28;20024;-77
2021/04/18 05:54:33;;;;;;;12.17;8.87;;;;;;;2.46;87.51;96503.16;5085079;28;20120;-77
2021/04/18 05:56:59;;;;;;;14.63;8.83;;;;;;;2.44;86.80;96500.66;5077903;28;20435;-77
2021/04/18 05:59:24;;;;;;;11.63;8.10;;;;;;;2.44;86.79;96495.47;5051547;28;20455;-77
2021/04/18 06:01:50;;;;;;;15.10;10.10;;;;;;;2.54;87.15;96504.28;5067359;28;21582;-77
2021/04/18 06:04:16;;;;;;;12.63;9.00;;;;;;;2.50;85.84;96504.63;5059977;28;20448;-77
2021/04/18 06:06:42;;;;;;;13.73;8.77;;;;;;;2.72;86.68;96506.59;5060324;28;20021;-77
2021/04/18 06:09:08;;;;;;;13.73;8.83;;;;;;;2.80;85.86;96497.34;5073682;28;20558;-77
2021/04/18 06:11:33;;;;;;;12.40;8.60;;;;;;;2.89;85.54;96501.09;5063078;28;20561;-77
2021/04/18 06:13:59;;;;;;;12.10;8.07;;;;;;;2.84;85.33;96501.38;5059802;28;20036;-77
2021/04/18 06:16:25;;;;;;;15.93;10.17;;;;;;;2.81;85.49;96495.56;5048224;28;20461;-76
2021/04/18 06:18:50;;;;;;;20.57;12.30;;;;;;;3.04;84.97;96497.41;5067605;28;20048;-77
2021/04/18 06:21:16;;;;;;;24.90;12.70;;;;;;;3.03;85.25;96502.72;5073238;28;20020;-77
2021/04/18 06:23:42;;;;;;;19.60;11.83;;;;;;;3.04;84.80;96492.22;5071217;28;20025;-78
2021/04/18 06:26:08;;;;;;;20.87;12.37;;;;;;;3.00;85.85;96498.56;5051311;28;20031;-77
2021/04/18 06:28:34;;;;;;;20.57;11.40;;;;;;;3.07;85.06;96492.00;5047602;28;20476;-76
2021/04/18 06:30:59;;;;;;;16.07;10.90;;;;;;;3.22;84.41;96497.06;5067863;28;20436;-77
2021/04/18 06:33:25;;;;;;;17.30;10.10;;;;;;;3.13;84.15;96489.94;5057787;28;20086;-79
2021/04/18 06:35:51;;;;;;;15.13;9.47;;;;;;;3.34;83.54;96493.59;5043715;28;20017;-77
2021/04/18 06:38:16;;;;;;;17.77;10.30;;;;;;;3.25;83.98;96499.44;5052328;28;20036;-77
2021/04/18 06:40:42;;;;;;;12.80;9.03;;;;;;;3.20;83.89;96496.34;5068673;28;20105;-77
2021/04/18 06:43:10;;;;;;;13.57;9.37;;;;;;;3.32;84.15;96503.31;5074081;28;20158;-77
2021/04/18 06:45:36;;;;;;;13.03;9.60;;;;;;;3.39;84.20;96506.31;5066568;28;20111;-77
2021/04/18 06:48:03;;;;;;;16.30;9.97;;;;;;;3.65;83.70;96497.44;5066015;28;20032;-77
2021/04/18 06:50:29;;;;;;;18.90;13.03;;;;;;;3.61;83.38;96503.00;5077191;28;20028;-81
2021/04/18 06:52:55;;;;;;;21.73;14.40;;;;;;;3.51;83.51;96500.22;5079030;28;20064;-77
2021/04/18 06:55:21;;;;;;;17.57;10.17;;;;;;;3.55;82.61;96501.66;5071994;28;20108;-77
2021/04/18 06:57:47;;;;;;;14.80;9.90;;;;;;;3.63;83.49;96503.72;5059215;28;20036;-79
2021/04/18 07:00:14;;;;;;;21.53;11.80;;;;;;;3.62;82.95;96499.44;5076857;28;20021;-77
2021/04/18 07:02:41;;;;;;;17.53;10.87;;;;;;;3.63;83.32;96506.31;5058404;28;20093;-77
2021/04/18 07:05:12;;;;;;;13.07;9.13;;;;;;;3.72;82.48;96498.69;5071309;28;20115;-77
2021/04/18 07:07:44;;;;;;;13.70;9.17;;;;;;;3.84;82.25;96486.56;5060779;28;20025;-77
2021/04/18 07:10:24;;;;;;;12.57;8.67;;;;;;;3.60;81.73;96496.13;5066859;28;20040;-78
2021/04/18 07:12:50;;;;;;;12.80;8.43;;;;;;;3.61;82.72;96497.78;5061760;28;20035;-77
2021/04/18 07:15:42;;;;;;;12.77;7.87;;;;;;;4.01;80.50;96495.72;5083937;28;20057;-77
2021/04/18 07:18:12;;;;;;;14.03;7.77;;;;;;;4.06;80.49;96487.56;5068910;28;20032;-76
2021/04/18 07:20:54;;;;;;;11.93;7.63;;;;;;;4.02;80.24;96484.38;5049946;28;20765;-77
2021/04/18 07:23:30;;;;;;;12.07;7.30;;;;;;;4.00;80.52;96486.28;5076538;28;20028;-77
2021/04/18 07:26:15;;;;;;;15.07;8.10;;;;;;;4.15;80.25;96481.69;5068599;28;20036;-77
2021/04/18 07:28:41;;;;;;;11.37;7.83;;;;;;;4.12;80.15;96487.13;5051261;28;20097;-77
2021/04/18 07:31:07;;;;;;;12.43;8.27;;;;;;;4.28;79.41;96479.03;5054039;28;20029;-77
2021/04/18 07:33:33;;;;;;;12.30;8.10;;;;;;;4.07;79.51;96490.09;5080545;28;20031;-77
2021/04/18 07:35:59;;;;;;;11.03;7.27;;;;;;;4.13;79.17;96486.22;5070039;28;20088;-78
2021/04/18 07:38:27;;;;;;;10.37;6.90;;;;;;;4.13;79.82;96492.25;5073332;28;20040;-77
2021/04/18 07:41:17;;;;;;;11.97;6.73;;;;;;;3.99;79.80;96493.25;5058618;28;20028;-76
2021/04/18 07:43:44;;;;;;;11.57;7.50;;;;;;;4.14;79.58;96493.06;5047222;28;20628;-77
2021/04/18 07:46:10;;;;;;;12.63;7.63;;;;;;;4.27;79.70;96490.38;5085754;28;20024;-77
2021/04/18 07:48:37;;;;;;;12.10;7.10;;;;;;;4.36;79.41;96487.94;5060538;28;20375;-78
2021/04/18 07:51:03;;;;;;;10.87;7.13;;;;;;;4.30;79.06;96492.78;5067871;28;20033;-77
2021/04/18 07:53:29;;;;;;;11.77;8.13;;;;;;;4.31;79.23;96495.25;5068955;28;20071;-77
2021/04/18 07:55:54;;;;;;;13.10;7.80;;;;;;;4.16;80.25;96497.22;5046746;28;20053;-77
2021/04/18 07:58:20;;;;;;;16.00;9.00;;;;;;;4.36;79.10;96490.53;5055124;28;20196;-77
2021/04/18 08:00:46;;;;;;;12.70;8.33;;;;;;;4.41;78.69;96488.41;5058631;28;20016;-77
2021/04/18 08:03:16;;;;;;;12.67;6.87;;;;;;;4.49;77.86;96491.28;5090179;28;20066;-77
2021/04/18 08:05:44;;;;;;;16.13;8.03;;;;;;;4.55;78.48;96491.75;5072554;28;20508;-77
2021/04/18 08:08:13;;;;;;;11.47;7.10;;;;;;;4.86;77.12;96488.47;5050678;28;20127;-77
2021/04/18 08:10:42;;;;;;;10.00;7.07;;;;;;;5.06;76.44;96491.31;5072787;28;20648;-77
2021/04/18 08:13:15;;;;;;;10.73;7.37;;;;;;;5.28;76.15;96493.91;5077449;28;20040;-78
2021/04/18 08:15:57;;;;;;;10.23;6.97;;;;;;;5.11;75.77;96483.97;5070624;28;20028;-77
2021/04/18 08:18:38;;;;;;;9.73;6.00;;;;;;;5.46;74.38;96482.97;5053610;28;20037;-77
2021/04/18 08:21:32;;;;;;;11.10;7.40;;;;;;;5.38;74.48;96481.81;5064782;28;20021;-77
2021/04/18 08:24:01;;;;;;;12.83;7.27;;;;;;;5.43;74.38;96481.44;5071583;28;20032;-76
2021/04/18 08:26:28;;;;;;;11.20;7.60;;;;;;;5.71;73.16;96476.66;5073099;28;21016;-77
2021/04/18 08:28:54;;;;;;;10.13;7.47;;;;;;;5.89;72.94;96480.38;5060103;28;20126;-77
2021/04/18 08:31:24;;;;;;;10.23;7.00;;;;;;;5.83;72.31;96476.47;5055512;28;20430;-80
2021/04/18 08:33:55;;;;;;;9.47;6.60;;;;;;;6.18;70.53;96479.81;5071625;28;20552;-77
2021/04/18 08:36:30;;;;;;;13.17;7.90;;;;;;;6.30;71.12;96479.63;5060196;28;20082;-77
2021/04/18 08:39:04;;;;;;;10.53;6.83;;;;;;;6.83;68.67;96476.91;5050761;28;20121;-77
2021/04/18 08:41:52;;;;;;;9.63;6.50;;;;;;;7.22;67.95;96486.72;5069379;28;20028;-77
2021/04/18 08:44:25;;;;;;;13.83;6.97;;;;;;;7.59;66.81;96478.31;5079597;28;20035;-78
2021/04/18 08:47:11;;;;;;;15.53;10.13;;;;;;;7.55;65.44;96478.56;5052604;28;20048;-77
2021/04/18 08:49:44;;;;;;;15.80;9.60;;;;;;;7.64;65.24;96484.75;5060979;28;20112;-79
2021/04/18 08:52:21;;;;;;;14.82;9.07;;;;;;;7.56;64.01;96487.25;5051641;28;20040;-77
2021/04/18 08:54:48;;;;;;;11.93;6.83;;;;;;;6.85;66.63;96482.84;5067822;28;20048;-77
2021/04/18 08:57:18;;;;;;;13.30;10.33;;;;;;;6.98;66.89;96485.25;5079490;28;20036;-79
2021/04/18 08:59:56;;;;;;;11.23;7.37;;;;;;;6.85;65.40;96479.41;5087986;28;20052;-77
2021/04/18 09:02:24;;;;;;;16.20;9.73;;;;;;;7.03;66.58;96477.84;5072113;28;20462;-76
2021/04/18 09:04:54;;;;;;;12.90;7.00;;;;;;;7.18;65.04;96483.56;5066509;28;20028;-77
2021/04/18 09:07:24;;;;;;;11.20;7.50;;;;;;;7.18;65.14;96480.94;5078214;28;20024;-78
2021/04/18 09:09:50;;;;;;;10.23;6.83;;;;;;;7.24;64.53;96483.03;5053847;28;20032;-77
2021/04/18 09:12:18;;;;;;;13.50;8.80;;;;;;;7.17;64.91;96487.09;5078643;28;20077;-78
2021/04/18 09:14:47;;;;;;;12.33;7.97;;;;;;;7.02;65.90;96485.81;5066837;28;20071;-78
2021/04/18 09:17:18;;;;;;;13.53;7.47;;;;;;;7.19;65.95;96487.00;5087791;28;20109;-78
2021/04/18 09:20:03;;;;;;;10.63;7.87;;;;;;;7.62;65.16;96484.09;5064979;28;20043;-77
2021/04/18 09:22:30;;;;;;;10.23;7.63;;;;;;;7.60;65.03;96475.53;5051042;28;20032;-78
2021/04/18 09:25:07;;;;;;;21.17;13.70;;;;;;;7.40;62.94;96477.28;5067582;28;20021;-78
2021/04/18 09:27:38;;;;;;;15.50;8.23;;;;;;;7.45;63.54;96487.38;5060932;28;20123;-77
2021/04/18 09:30:10;;;;;;;11.40;7.23;;;;;;;7.02;64.75;96483.22;5053133;28;20036;-77
2021/04/18 09:32:40;;;;;;;11.40;7.60;;;;;;;7.35;62.89;96482.09;5062585;28;20076;-77
2021/04/18 09:35:09;;;;;;;10.70;6.20;;;;;;;7.54;63.66;96476.91;5071904;28;20036;-78
2021/04/18 09:37:42;;;;;;;11.03;7.73;;;;;;;8.05;62.91;96469.81;5049075;28;20067;-77
2021/04/18 09:40:15;;;;;;;15.85;8.18;;;;;;;8.49;60.08;96470.22;5069844;28;21815;-77
2021/04/18 09:42:48;;;;;;;12.77;7.97;;;;;;;8.93;59.87;96465.28;5051065;28;20056;-78
2021/04/18 09:45:22;;;;;;;11.00;7.57;;;;;;;9.63;56.54;96463.84;5066904;28;20069;-78
2021/04/18 09:47:53;;;;;;;10.30;6.70;;;;;;;10.48;54.02;96459.06;5062904;28;20067;-79
2021/04/18 09:50:22;;;;;;;13.43;7.80;;;;;;;10.05;53.99;96462.44;5069163;28;20036;-79
2021/04/18 09:52:49;;;;;;;13.73;7.53;;;;;;;10.26;55.10;96460.38;5057233;28;20583;-79
2021/04/18 09:55:16;;;;;;;17.03;7.33;;;;;;;9.73;57.13;96468.22;5073013;28;20040;-79
2021/04/18 09:57:44;;;;;;;10.50;7.20;;;;;;;9.37;57.58;96465.50;5076643;28;20108;-78
2021/04/18 10:00:15;;;;;;;11.57;6.47;;;;;;;9.20;56.36;96467.13;5082368;28;20040;-78
2021/04/18 10:02:55;;;;;;;12.47;7.00;;;;;;;8.95;56.71;96469.44;5051919;28;20029;-78
2021/04/18 10:05:21;;;;;;;11.67;8.47;;;;;;;8.43;58.91;96476.03;5064866;28;20173;-78
2021/04/18 10:07:46;;;;;;;10.43;6.87;;;;;;;8.69;57.86;96469.22;5055256;28;20460;-77
2021/04/18 10:10:30;;;;;;;11.33;6.60;;;;;;;8.30;59.63;96483.31;5065779;28;20620;-80
2021/04/18 10:12:55;;;;;;;;;;;;;;;8.72;59.07;96475.97;5074088;28;20036;-80
2021/04/18 10:15:22;;;;;;;10.27;6.23;;;;;;;8.84;57.78;96472.19;5060335;28;19953;-80
2021/04/18 10:17:54;;;;;;;10.70;6.73;;;;;;;8.64;58.60;96478.47;5066191;28;20040;-79
2021/04/18 10:20:27;;;;;;;10.60;6.40;;;;;;;8.53;58.32;96478.63;5052646;28;20578;-78
2021/04/18 10:23:00;;;;;;;13.23;6.68;;;;;;;8.59;57.06;96484.13;5049808;28;20117;-78
2021/04/18 10:25:27;;;;;;;12.23;7.00;;;;;;;8.20;57.86;96481.50;5050790;28;20122;-78
2021/04/18 10:27:55;;;;;;;11.57;7.00;;;;;;;8.16;57.88;96480.16;5064102;28;20094;-79
2021/04/18 10:30:22;;;;;;;10.73;7.63;;;;;;;8.08;59.20;96487.03;5064665;28;20055;-80
2021/04/18 10:32:48;;;;;;;11.83;7.67;;;;;;;7.80;59.65;96487.69;5057443;28;20028;-80
2021/04/18 10:35:13;;;;;;;10.37;7.20;;;;;;;6.97;62.48;96485.38;5060929;28;20051;-79
2021/04/18 10:37:40;;;;;;;11.90;7.23;;;;;;;6.98;62.56;96479.22;5067472;28;20483;-79
2021/04/18 10:40:08;;;;;;;34.67;19.73;;;;;;;7.49;61.18;96478.28;5077382;28;20090;-79
2021/04/18 10:42:35;;;;;;;23.73;15.00;;;;;;;7.68;60.33;96477.47;5050374;28;20096;-79
2021/04/18 10:45:05;;;;;;;15.37;7.73;;;;;;;7.76;60.36;96483.69;5067202;28;20470;-80
2021/04/18 10:47:30;;;;;;;15.53;9.80;;;;;;;8.07;58.95;96475.72;5053732;28;20471;-77
2021/04/18 10:49:58;;;;;;;10.23;6.70;;;;;;;7.96;59.22;96481.09;5056470;28;20085;-79
2021/04/18 10:52:23;;;;;;;14.83;7.73;;;;;;;8.20;58.50;96468.41;5079356;28;20440;-79
2021/04/18 10:54:49;;;;;;;31.93;17.70;;;;;;;8.31;59.21;96464.81;5060628;28;20056;-80
2021/04/18 10:57:14;;;;;;;12.37;8.27;;;;;;;8.45;58.16;96469.69;5068775;28;20036;-79
2021/04/18 10:59:40;;;;;;;11.30;7.00;;;;;;;9.73;53.20;96457.72;5059346;28;20047;-79
2021/04/18 11:02:07;;;;;;;13.40;8.10;;;;;;;10.22;52.69;96445.03;5065380;28;20388;-78
2021/04/18 11:04:32;;;;;;;18.13;10.63;;;;;;;11.82;48.57;96440.13;5086082;28;20027;-82
2021/04/18 11:07:01;;;;;;;10.97;6.77;;;;;;;13.44;45.99;96430.41;5063131;28;20028;-80
2021/04/18 11:09:28;;;;;;;10.50;6.73;;;;;;;12.84;45.93;96429.09;5073897;28;20508;-80
2021/04/18 11:11:53;;;;;;;12.03;6.97;;;;;;;12.69;46.68;96428.13;5086753;28;20047;-77
2021/04/18 11:14:19;;;;;;;13.87;6.67;;;;;;;12.10;47.76;96438.84;5090716;28;20500;-80
2021/04/18 11:16:45;;;;;;;10.33;7.00;;;;;;;11.60;47.76;96436.28;5058198;28;20016;-79
2021/04/18 11:19:10;;;;;;;11.20;7.10;;;;;;;11.19;50.07;96441.41;5080795;28;20032;-80
2021/04/18 11:21:36;;;;;;;37.17;19.90;;;;;;;10.70;50.77;96439.34;5054237;28;20111;-83
2021/04/18 11:24:02;;;;;;;20.50;12.47;;;;;;;10.31;52.05;96446.78;5077654;28;20127;-78
2021/04/18 11:26:28;;;;;;;11.40;7.57;;;;;;;9.64;53.01;96438.41;5077192;28;20035;-79
2021/04/18 11:28:56;;;;;;;10.00;7.20;;;;;;;9.84;53.13;96437.31;5063278;28;20119;-79
2021/04/18 11:31:22;;;;;;;10.23;6.77;;;;;;;9.11;55.21;96436.50;5062411;28;20738;-79
2021/04/18 11:33:48;;;;;;;12.70;7.60;;;;;;;8.98;55.69;96435.00;5074314;28;20040;-80
2021/04/18 11:36:20;;;;;;;11.53;6.97;;;;;;;9.26;54.58;96436.84;5053088;28;20032;-79
2021/04/18 11:38:46;;;;;;;10.07;7.30;;;;;;;9.64;54.15;96433.97;5075807;28;20032;-79
2021/04/18 11:41:12;;;;;;;9.00;6.33;;;;;;;10.45;51.37;96432.25;5075878;28;20051;-79